Terminal Aerodrome Forecast
Issued by NWS St Louis, MO

Home | Current Version | Previous Version | Text Only | Print | Product List | Glossary On
Versions: 1 2 3 4 5 6 7 8 9 10 11 12 13 14 15 16 17 18 19 20 21 22 23 24 25 26 27 28 29
773
FTUS43 KLSX 270520
TAFCOU
TAF
KCOU 270520Z 2706/2806 05006KT 6SM -SHRA SCT030 OVC080
     FM270800 07007KT 5SM SHRA OVC030
     FM271000 07008KT 4SM SHRA OVC010
     FM271200 07008KT 5SM -SHRA BR OVC008
     FM271700 02008KT P6SM OVC010
     FM280000 35008KT P6SM OVC015=

USA.gov is the U.S. government's official web portal to all federal, state and local government web resources and services.